MHLM/SAP METAR and TAF weather

Enter ICAO airport designator
Station Type Date Time Source
MHLM METAR 2020/01/28 05:00 UTC NOAA

MHLM 280500Z 15003KT 9999 FEW025 SCT250 22/22 Q1014 A2995 NOSIG


Station Type Date Time Source
MHLM Decoded METAR 2020/01/28 05:00 UTC NOAA

La Mesa San Pedro Sula , Honduras (MHLM) 15-27N 087-56W 31M
Jan 28, 2020 - 12:00 AM EST / 2020.01.28 0500 UTC
Wind: from the SSE (150 degrees) at 3 MPH (3 KT):0
Visibility: greater than 7 mile(s):0
Sky conditions: partly cloudy
Temperature: 71 F (22 C)
Dew Point: 71 F (22 C)
Relative Humidity: 100%
Pressure (altimeter): 29.95 in. Hg (1014 hPa)
ob: MHLM 280500Z 15003KT 9999 FEW025 SCT250 22/22 Q1014 A2995 NOSIG
cycle: 5

Station Type Date Time Source
MHLM TAF 2020/01/28 06:18 UTC NOAA

TAF MHLM 280415Z 2806/2906 09005KT 9999 FEW028 TX32/2819Z TN20/2812Z
BECMG 2806/2808 21004KT
BECMG 2813/2815 00000KT
BECMG 2820/2822 05006KT SCT026

Example: see airport list